• Join FlightAware (Why Join?)
  • Login
  • US Flag 
01:06PM EDT


 

Airport Tracker/Info


-or-


 

Live Flight TrackerFlight Track Log ✈ GJS3618 ✈ 20-Apr-2013 ✈ KDEN - CYYZ

Flight Track Log - Related Links

Times and Time Zones

All times are in EDT time to prevent confusion due to time zone crossing. See the GJS3618 flight status page for this flight to view local times or setup timezone preferences in your user account.

Time Position Orientation Groundspeed Altitude Reporting Facility
EDT Latitude Longitude Course Direction KTS MPH feet Rate Location/Type
03:09PM 39.8833 -104.6000 79° East 180 207 6,700  Level Denver TRACON
03:10PM 39.8833 -104.5167 90° East 232 267 8,000 1,500 Climbing Denver TRACON
03:12PM 39.9633 -104.0647 73° East  Level FlightAware Approximate
03:12PM 39.9450 -104.2731 72° East 334 384 11,800  Level Denver Center
03:13PM 39.9860 -103.9147 79° East  Level FlightAware Approximate
03:13PM 39.9728 -104.1444 74° East 367 422 12,600  Level Denver Center
03:14PM 40.0169 -103.7654 79° East  Level FlightAware Approximate
03:14PM 39.9886 -104.0006 82° East 376 433 14,300  Level Denver Center
03:15PM 40.0033 -103.8672 82° East 372 428 17,000 2,280 Climbing Denver Center
03:16PM 40.0275 -103.7239 78° East 368 423 19,000 1,620 Climbing Denver Center
03:17PM 40.0486 -103.6028 77° East 380 437 20,400 1,440 Climbing Denver Center
03:18PM 40.0722 -103.4597 78° East 397 457 22,000 1,440 Climbing Denver Center
03:19PM 40.0956 -103.3136 78° East 407 468 23,400 1,260 Climbing Denver Center
03:20PM 40.1183 -103.1633 79° East 418 481 24,700 1,320 Climbing Denver Center
03:21PM 40.1481 -102.9875 77° East 422 486 26,200 1,200 Climbing Denver Center
03:22PM 40.1711 -102.8331 79° East 429 494 27,200 960 Climbing Denver Center
03:23PM 40.1967 -102.6747 78° East 438 504 28,200 960 Climbing Denver Center
03:24PM 40.2203 -102.5144 79° East 443 510 29,200 780 Climbing Denver Center
03:25PM 40.2453 -102.3617 78° East 449 517 29,900 540 Climbing Denver Center
03:26PM 40.2722 -102.1758 79° East 465 535 30,400 480 Climbing Denver Center
03:27PM 40.2961 -102.0131 79° East 473 544 30,900 480 Climbing Denver Center
03:28PM 40.3269 -101.8217 78° East 480 552 31,500 480 Climbing Denver Center
03:29PM 40.3492 -101.6533 80° East 489 563 32,000 420 Climbing Denver Center
03:31PM 40.3736 -101.4869 79° East 487 560 32,400 480 Climbing Denver Center
03:32PM 40.4100 -101.2925 76° East 493 567 33,100 720 Climbing Denver Center
03:33PM 40.4450 -101.1286 74° East 490 564 33,900 840 Climbing Denver Center
03:34PM 40.4839 -100.9381 75° East 488 562 34,900 540 Climbing Denver Center
03:35PM 40.5158 -100.7767 75° East 483 556 35,000  Climbing Denver Center
03:36PM 40.5539 -100.5861 75° East 489 563 35,000  Level Denver Center
03:37PM 40.5864 -100.4228 75° East 488 562 35,000  Level Denver Center
03:38PM 40.6192 -100.2597 75° East 486 559 35,000  Level Denver Center
03:39PM 40.6567 -100.0681 75° East 486 559 35,000  Level Denver Center
03:40PM 40.6892 -99.9025 75° East 490 564 35,000  Level Denver Center
03:41PM 40.7225 -99.7311 76° East 488 562 35,000  Level Denver Center
03:42PM 40.7558 -99.5561 76° East 492 566 35,000  Level Denver Center
03:43PM 40.7947 -99.3453 76° East 493 567 35,000  Level Denver Center
03:44PM 40.8278 -99.1692 76° East 496 571 35,000  Level Denver Center
03:45PM 40.8586 -99.0061 76° East 500 575 35,000  Level Denver Center
03:46PM 40.8939 -98.8083 77° East 497 572 35,000  Level Denver Center
03:47PM 40.9250 -98.6417 76° East 499 574 35,000  Level Denver Center
03:48PM 40.9575 -98.4678 76° East 496 571 35,000  Level Denver Center
03:49PM 41.0039 -98.2217 76° East 495 570 35,000  Level Minneapolis Center
03:50PM 41.0431 -98.0469 73° East 496 571 35,000  Level Minneapolis Center
03:51PM 41.0814 -97.8717 74° East 497 572 35,000  Level Minneapolis Center
03:52PM 41.1197 -97.6969 74° East 495 570 35,000  Level Minneapolis Center
03:53PM 41.1575 -97.5206 74° East 497 572 35,000  Level Minneapolis Center
03:54PM 41.1997 -97.3278 74° East 497 572 35,000  Level Minneapolis Center
03:55PM 41.2369 -97.1519 74° East 496 571 35,000  Level Minneapolis Center
03:56PM 41.2742 -96.9744 74° East 498 573 35,000  Level Minneapolis Center
03:57PM 41.3119 -96.7975 74° East 497 572 35,000  Level Minneapolis Center
03:58PM 41.3486 -96.6200 75° East 497 572 35,000  Level Minneapolis Center
03:59PM 41.3858 -96.4442 74° East 493 567 35,000  Level Minneapolis Center
04:00PM 41.4247 -96.2494 75° East 495 570 35,000  Level Minneapolis Center
04:01PM 41.4606 -96.0717 75° East 496 571 35,000  Level Minneapolis Center
04:02PM 41.4953 -95.8964 75° East 491 565 35,000  Level Minneapolis Center
04:03PM 41.5311 -95.7183 75° East 495 570 35,000  Level Minneapolis Center
04:04PM 41.5644 -95.5464 75° East 492 566 35,000  Level Minneapolis Center
04:06PM 41.5992 -95.3692 75° East 493 567 35,000  Level Minneapolis Center
04:07PM 41.6347 -95.1897 75° East 499 574 35,000  Level Minneapolis Center
04:08PM 41.6750 -94.9761 76° East 494 568 35,000  Level Minneapolis Center
04:09PM 41.7081 -94.7956 76° East 500 575 35,000  Level Minneapolis Center
04:10PM 41.7428 -94.6164 75° East 498 573 35,000  Level Minneapolis Center
04:11PM 41.7756 -94.4381 76° East 494 568 35,000  Level Minneapolis Center
04:12PM 41.8100 -94.2583 76° East 497 572 35,000  Level Minneapolis Center
04:13PM 41.8417 -94.0789 77° East 497 572 35,000  Level Minneapolis Center
04:14PM 41.8753 -93.8981 76° East 498 573 35,000  Level Minneapolis Center
04:15PM 41.9094 -93.7086 76° East 499 574 35,000  Level Minneapolis Center
04:16PM 41.9408 -93.5292 77° East 498 573 35,000  Level Minneapolis Center
04:17PM 41.9789 -93.3258 76° East 502 578 35,000  Level Minneapolis Center
04:18PM 42.0117 -93.1447 76° East 501 577 35,000  Level Minneapolis Center
04:19PM 42.0450 -92.9622 76° East 506 582 35,000  Level Minneapolis Center
04:20PM 42.0781 -92.7803 76° East 506 582 35,000  Level Minneapolis Center
04:21PM 42.1111 -92.5981 76° East 506 582 35,000  Level Minneapolis Center
04:22PM 42.1500 -92.3747 77° East 512 589 35,000  Level Minneapolis Center
04:23PM 42.1825 -92.1900 77° East 513 590 35,000  Level Minneapolis Center
04:24PM 42.2136 -92.0053 77° East 512 589 35,000  Level Minneapolis Center
04:25PM 42.2456 -91.8192 77° East 515 593 35,000  Level Minneapolis Center
04:26PM 42.2767 -91.6336 77° East 514 592 35,000  Level Minneapolis Center
04:27PM 42.3081 -91.4478 77° East 516 594 35,000  Level Minneapolis Center
04:28PM 42.3447 -91.2233 77° East 518 596 35,000  Level Minneapolis Center
04:29PM 42.3753 -91.0339 78° East 522 601 35,000  Level Minneapolis Center
04:30PM 42.4114 -90.8114 78° East 518 596 35,000  Level Chicago Center
04:31PM 42.4414 -90.6239 78° East 517 595 35,000  Level Chicago Center
04:32PM 42.4761 -90.3964 78° East 520 598 35,000  Level Chicago Center
04:33PM 42.5053 -90.2075 78° East 518 596 35,000  Level Chicago Center
04:34PM 42.5353 -90.0186 78° East 519 597 35,000  Level Chicago Center
04:36PM 42.5633 -89.8314 78° East 517 595 35,000  Level Chicago Center
04:37PM 42.5975 -89.6086 78° East 517 595 35,000  Level Chicago Center
04:38PM 42.6253 -89.4156 79° East 522 601 35,000  Level Chicago Center
04:39PM 42.6528 -89.2228 79° East 521 600 35,000  Level Chicago Center
04:40PM 42.6819 -89.0297 78° East 522 601 35,000  Level Chicago Center
04:41PM 42.7094 -88.8358 79° East 522 601 35,000  Level Chicago Center
04:42PM 42.7408 -88.6092 79° East 524 603 35,000  Level Chicago Center
04:43PM 42.7681 -88.4147 79° East 525 604 35,000  Level Chicago Center
04:44PM 42.7953 -88.2203 79° East 525 604 35,000  Level Chicago Center
04:45PM 42.8214 -88.0261 80° East 525 604 35,000  Level Chicago Center
04:46PM 42.8464 -87.8308 80° East 525 604 35,000  Level Chicago Center
04:47PM 42.8728 -87.6333 80° East 530 610 35,000  Level Chicago Center
04:48PM 42.9017 -87.4047 80° East 527 606 35,000  Level Chicago Center
04:49PM 42.9256 -87.2247 80° East 528 608 35,000  Level Chicago Center
04:50PM 42.9503 -87.0283 80° East 527 606 35,000  Level Chicago Center
04:51PM 42.9753 -86.8331 80° East 524 603 35,000  Level Chicago Center
04:52PM 42.9986 -86.6381 81° East 521 600 35,000  Level Chicago Center
04:53PM 43.0269 -86.4044 81° East 521 600 35,000  Level Chicago Center
04:54PM 43.0500 -86.2097 81° East 520 598 35,000  Level Chicago Center
04:55PM 43.0744 -86.0078 81° East 519 597 35,000  Level Chicago Center
04:56PM 43.0964 -85.8022 82° East 521 600 35,000  Level Chicago Center
04:57PM 43.1189 -85.6047 81° East 524 603 35,000  Level Chicago Center
04:58PM 43.1408 -85.4086 81° East 522 601 35,000  Level Chicago Center
04:59PM 43.1625 -85.2128 81° East 522 601 35,000  Level Chicago Center
05:00PM 43.1822 -84.9997 83° East 521 600 35,000  Level Cleveland Center
05:01PM 43.2042 -84.8047 81° East 521 600 35,000  Level Cleveland Center
05:02PM 43.2239 -84.6064 82° East 521 600 35,000  Level Cleveland Center
05:03PM 43.2411 -84.4050 83° East 521 600 35,000  Level Cleveland Center
05:04PM 43.2456 -84.2031 88° East 526 605 35,000  Level Cleveland Center
05:05PM 43.2453 -84.0006 90° East 526 605 35,000  Level Cleveland Center
05:06PM 43.2497 -83.7783 88° East 526 605 35,000  Level Cleveland Center
05:07PM 43.2508 -83.5789 89° East 526 605 35,000 -420 Level Cleveland Center
05:08PM 43.2517 -83.3767 90° East 531 611 34,200 -1,260 Descending Cleveland Center
05:09PM 43.2522 -83.1686 90° East 536 617 32,500 -1,680 Descending Cleveland Center
05:10PM 43.2528 -82.9603 90° East 536 617 30,900 -1,740 Descending Cleveland Center
05:11PM 43.2544 -82.7581 89° East 536 617 29,100 -960 Descending Cleveland Center
05:12PM 43.2706 -82.5647 83° East 519 597 29,000 -120 Descending Cleveland Center
05:13PM 43.2667 -82.4500 93° East 500 575 29,000  Level Toronto Center
05:14PM 43.2833 -82.2667 83° East 500 575 29,000  Level Toronto Center
05:15PM 43.3000 -82.0833 83° East 490 564 29,000  Level Toronto Center
05:16PM 43.2500 -81.9167 112° Southeast 450 518 29,000  Level Toronto Center
05:17PM 43.1833 -81.8000 128° Southeast 440 506 29,000 -180 Level Toronto Center
05:18PM 43.1000 -81.6667 131° Southeast 450 518 28,700 -720 Descending Toronto Center
05:19PM 43.1167 -81.5000 82° East 460 529 27,600 -1,200 Descending Toronto Center
05:20PM 43.1500 -81.3167 76° East 450 518 26,300 -1,260 Descending Toronto Center
05:21PM 43.2000 -81.1833 63° Northeast 430 495 25,100 -1,440 Descending Toronto Center
05:22PM 43.2333 -81.0500 71° East 430 495 23,500 -1,980 Descending Toronto Center
05:23PM 43.2833 -80.9000 65° Northeast 430 495 21,200 -2,220 Descending Toronto Center
05:24PM 43.3333 -80.7500 65° Northeast 410 472 19,100 -2,040 Descending Toronto Center
05:25PM 43.3833 -80.6000 65° Northeast 390 449 17,200 -1,980 Descending Toronto Center
05:26PM 43.4167 -80.4833 68° East 380 437 15,200 -1,980 Descending Toronto Center
05:27PM 43.4500 -80.3500 71° East 360 414 13,300 -1,380 Descending Toronto Center
05:28PM 43.4833 -80.2333 68° East 340 391 12,500 -900 Descending Toronto Center
05:29PM 43.5167 -80.1167 68° East 320 368 11,500 -1,140 Descending Toronto Center
05:30PM 43.5500 -80.0000 68° East 310 357 10,300 -1,440 Descending Toronto Center
05:31PM 43.5667 -79.8833 79° East 290 334 8,700 -1,200 Descending Toronto Center
05:32PM 43.6000 -79.8000 61° Northeast 290 334 8,000 -900 Descending Toronto Center
05:33PM 43.6000 -79.7000 90° East 270 311 6,900 -1,200 Descending Toronto Center
05:34PM 43.5500 -79.6333 136° Southeast 250 288 5,600 -1,380 Descending Toronto Center
05:35PM 43.5000 -79.5667 136° Southeast 230 265 4,200 -1,200 Descending Toronto Center
05:36PM 43.5167 -79.5000 71° East 230 265 3,200 -600 Descending Toronto Center
05:37PM 43.5500 -79.4667 36° Northeast 170 196 3,000 -300 Descending Toronto Center
05:38PM 43.5833 -79.5167 313° West 150 173 2,700 -300 Descending Toronto Center